Time;durP1;ratioP1;P1;durP2;ratioP2;P2;SDS_P1;SDS_P2;PMS_P1;PMS_P2;Temp;Humidity;BMP_temperature;BMP_pressure;BME280_temperature;BME280_humidity;BME280_pressure;Samples;Min_cycle;Max_cycle;Signal;HPM_P1;HPM_P2
2023/01/13 00:01:10;;;;;;;;;;;;;;;;;;4974270;28;2096;-44
2023/01/13 00:03:38;;;;;;;;;;;;;;;;;;4974363;28;2031;-45
2023/01/13 00:06:05;;;;;;;;;;;;;;;;;;4974353;28;1803;-47
2023/01/13 00:08:33;;;;;;;;;;;;;;;;;;4973977;28;2180;-43
2023/01/13 00:11:00;;;;;;;;;;;;;;;;;;4974320;28;1923;-44
2023/01/13 00:13:27;;;;;;;;;;;;;;;;;;4974030;28;1622;-43
2023/01/13 00:16:05;;;;;;;;;;;;;;;;;;4974243;28;2049;-45
2023/01/13 00:18:32;;;;;;;;;;;;;;;;;;4974043;28;1956;-44
2023/01/13 00:21:20;;;;;;;;;;;;;;;;;;4973946;28;2099;-42
2023/01/13 00:23:47;;;;;;;;;;;;;;;;;;4973379;28;1973;-44
2023/01/13 00:26:18;;;;;;;;;;;;;;;;;;4974342;28;2173;-44
2023/01/13 00:28:46;;;;;;;;;;;;;;;;;;4993217;28;1907;-44
2023/01/13 00:31:17;;;;;;;;;;;;;;;;;;4993219;28;2125;-44
2023/01/13 00:33:45;;;;;;;;;;;;;;;;;;4993064;28;2157;-43
2023/01/13 00:36:13;;;;;;;;;;;;;;;;;;4993257;28;1948;-44
2023/01/13 00:38:41;;;;;;;;;;;;;;;;;;4975553;28;2040;-43
2023/01/13 00:41:10;;;;;;;;;;;;;;;;;;4993046;28;2385;-44
2023/01/13 00:43:37;;;;;;;;;;;;;;;;;;4992760;28;1979;-45
2023/01/13 00:46:05;;;;;;;;;;;;;;;;;;4993064;28;1962;-44
2023/01/13 00:48:32;;;;;;;;;;;;;;;;;;4992909;28;1914;-44
2023/01/13 00:51:04;;;;;;;;;;;;;;;;;;4992784;28;2037;-44
2023/01/13 00:53:35;;;;;;;;;;;;;;;;;;4992890;28;1894;-44
2023/01/13 00:56:04;;;;;;;;;;;;;;;;;;4975629;28;1984;-43
2023/01/13 00:58:32;;;;;;;;;;;;;;;;;;4992518;28;2012;-45
2023/01/13 01:01:01;;;;;;;;;;;;;;;;;;4992245;28;2045;-44
2023/01/13 01:03:28;;;;;;;;;;;;;;;;;;4992287;28;1933;-44
2023/01/13 01:06:02;;;;;;;;;;;;;;;;;;4992928;28;1854;-45
2023/01/13 01:08:29;;;;;;;;;;;;;;;;;;4992474;28;2074;-44
2023/01/13 01:11:07;;;;;;;;;;;;;;;;;;4992678;28;1893;-43
2023/01/13 01:13:34;;;;;;;;;;;;;;;;;;4991187;28;2065;-46
2023/01/13 01:16:05;;;;;;;;;;;;;;;;;;4992159;28;2023;-44
2023/01/13 01:18:33;;;;;;;;;;;;;;;;;;4992264;28;2048;-45
2023/01/13 01:21:01;;;;;;;;;;;;;;;;;;4992135;28;1860;-43
2023/01/13 01:23:28;;;;;;;;;;;;;;;;;;4975301;28;1952;-42
2023/01/13 01:26:02;;;;;;;;;;;;;;;;;;4992409;28;2085;-45
2023/01/13 01:28:30;;;;;;;;;;;;;;;;;;4991844;28;1981;-43
2023/01/13 01:30:58;;;;;;;;;;;;;;;;;;4992109;28;1946;-44
2023/01/13 01:33:25;;;;;;;;;;;;;;;;;;4974580;28;1862;-43
2023/01/13 01:35:53;;;;;;;;;;;;;;;;;;4992192;28;1640;-43
2023/01/13 01:38:22;;;;;;;;;;;;;;;;;;4992160;28;2127;-43
2023/01/13 01:40:49;;;;;;;;;;;;;;;;;;4992129;28;1861;-44
2023/01/13 01:46:03;;;;;;;;;;;;;;;;;;4991988;28;1875;-41
2023/01/13 01:48:33;;;;;;;;;;;;;;;;;;4991436;28;1977;-44
2023/01/13 01:51:01;;;;;;;;;;;;;;;;;;4991805;28;1955;-42
2023/01/13 01:53:28;;;;;;;;;;;;;;;;;;4991777;28;1934;-42
2023/01/13 01:55:56;;;;;;;;;;;;;;;;;;4992079;28;1984;-42
2023/01/13 01:58:27;;;;;;;;;;;;;;;;;;4991745;28;1830;-40
2023/01/13 02:00:54;;;;;;;;;;;;;;;;;;4991583;28;2003;-42
2023/01/13 02:03:22;;;;;;;;;;;;;;;;;;4991708;28;1746;-41
2023/01/13 02:05:51;;;;;;;;;;;;;;;;;;4991763;28;2054;-43
2023/01/13 02:08:19;;;;;;;;;;;;;;;;;;4991499;28;2093;-42
2023/01/13 02:10:49;;;;;;;;;;;;;;;;;;4991760;28;2018;-44
2023/01/13 02:13:16;;;;;;;;;;;;;;;;;;4991709;28;1945;-42
2023/01/13 02:16:02;;;;;;;;;;;;;;;;;;4991752;28;1991;-42
2023/01/13 02:18:39;;;;;;;;;;;;;;;;;;4991668;28;2200;-43
2023/01/13 02:21:24;;;;;;;;;;;;;;;;;;4991610;28;1989;-43
2023/01/13 02:26:59;;;;;;;;;;;;;;;;;;4991433;28;1909;-42
2023/01/13 02:32:32;;;;;;;;;;;;;;;;;;4994133;28;1799;-40
2023/01/13 02:35:04;;;;;;;;;;;;;;;;;;5011671;28;1861;-41
2023/01/13 02:37:34;;;;;;;;;;;;;;;;;;5014942;28;2016;-42
2023/01/13 02:40:05;;;;;;;;;;;;;;;;;;5015212;28;1840;-41
2023/01/13 02:45:22;;;;;;;;;;;;;;;;;;5014662;28;1839;-41
2023/01/13 02:47:54;;;;;;;;;;;;;;;;;;5014465;28;2001;-41
2023/01/13 02:50:24;;;;;;;;;;;;;;;;;;5014533;28;2147;-40
2023/01/13 02:52:54;;;;;;;;;;;;;;;;;;5014605;28;2001;-41
2023/01/13 02:55:25;;;;;;;;;;;;;;;;;;5014782;28;2077;-42
2023/01/13 02:57:53;;;;;;;;;;;;;;;;;;5014758;28;2200;-42
2023/01/13 03:00:22;;;;;;;;;;;;;;;;;;5014417;28;1934;-45
2023/01/13 03:02:49;;;;;;;;;;;;;;;;;;5014363;28;1524;-42
2023/01/13 03:05:16;;;;;;;;;;;;;;;;;;5009743;28;2145;-41
2023/01/13 03:08:01;;;;;;;;;;;;;;;;;;5009468;28;2091;-41
2023/01/13 03:10:47;;;;;;;;;;;;;;;;;;5013977;28;1939;-40
2023/01/13 03:13:20;;;;;;;;;;;;;;;;;;5002542;28;1996;-41
2023/01/13 03:15:53;;;;;;;;;;;;;;;;;;4994690;28;1933;-40
2023/01/13 03:18:20;;;;;;;;;;;;;;;;;;4994472;28;2081;-40
2023/01/13 03:21:03;;;;;;;;;;;;;;;;;;4994558;28;1946;-41
2023/01/13 03:23:34;;;;;;;;;;;;;;;;;;4994679;28;1936;-41
2023/01/13 03:26:05;;;;;;;;;;;;;;;;;;4994788;28;2335;-41
2023/01/13 03:28:39;;;;;;;;;;;;;;;;;;4994666;28;1963;-41
2023/01/13 03:31:10;;;;;;;;;;;;;;;;;;4994096;28;2064;-47
2023/01/13 03:33:40;;;;;;;;;;;;;;;;;;4994136;28;1944;-41
2023/01/13 03:36:09;;;;;;;;;;;;;;;;;;4994253;28;1990;-41
2023/01/13 03:38:41;;;;;;;;;;;;;;;;;;4993070;28;2003;-38
2023/01/13 03:41:18;;;;;;;;;;;;;;;;;;4994184;28;1961;-41
2023/01/13 03:44:21;;;;;;;;;;;;;;;;;;4993440;28;1878;-41
2023/01/13 03:46:52;;;;;;;;;;;;;;;;;;4990171;28;2092;-41
2023/01/13 03:49:22;;;;;;;;;;;;;;;;;;4993727;28;2131;-40
2023/01/13 03:51:53;;;;;;;;;;;;;;;;;;4994136;28;1876;-40
2023/01/13 03:54:22;;;;;;;;;;;;;;;;;;4993514;28;1939;-40
2023/01/13 03:57:09;;;;;;;;;;;;;;;;;;4993879;28;1925;-41
2023/01/13 03:59:39;;;;;;;;;;;;;;;;;;4993786;28;2098;-41
2023/01/13 04:02:08;;;;;;;;;;;;;;;;;;4994096;28;1972;-41
2023/01/13 04:04:47;;;;;;;;;;;;;;;;;;4993829;28;1989;-40
2023/01/13 04:07:20;;;;;;;;;;;;;;;;;;4993573;28;2011;-41
2023/01/13 04:09:49;;;;;;;;;;;;;;;;;;4992066;28;1906;-40
2023/01/13 04:12:19;;;;;;;;;;;;;;;;;;4993647;28;1936;-40
2023/01/13 04:14:48;;;;;;;;;;;;;;;;;;4993694;28;2034;-41
2023/01/13 04:17:15;;;;;;;;;;;;;;;;;;4993553;28;1943;-41
2023/01/13 04:19:43;;;;;;;;;;;;;;;;;;4993450;28;2081;-39
2023/01/13 04:22:10;;;;;;;;;;;;;;;;;;4993518;28;2023;-40
2023/01/13 04:24:38;;;;;;;;;;;;;;;;;;4993703;28;1951;-41
2023/01/13 04:27:05;;;;;;;;;;;;;;;;;;4992571;28;2134;-41
2023/01/13 04:29:33;;;;;;;;;;;;;;;;;;4993190;28;2042;-39
2023/01/13 04:32:00;;;;;;;;;;;;;;;;;;4993077;28;1985;-41
2023/01/13 04:34:27;;;;;;;;;;;;;;;;;;4993164;28;2007;-42
2023/01/13 04:36:54;;;;;;;;;;;;;;;;;;4993264;28;2111;-42
2023/01/13 04:39:22;;;;;;;;;;;;;;;;;;4993252;28;2085;-42
2023/01/13 04:41:58;;;;;;;;;;;;;;;;;;4993041;28;1868;-40
2023/01/13 04:44:25;;;;;;;;;;;;;;;;;;4992799;28;1871;-42
2023/01/13 04:46:52;;;;;;;;;;;;;;;;;;4992870;28;1960;-41
2023/01/13 04:49:20;;;;;;;;;;;;;;;;;;4992787;28;1967;-40
2023/01/13 04:51:48;;;;;;;;;;;;;;;;;;4992679;28;2018;-40
2023/01/13 04:54:15;;;;;;;;;;;;;;;;;;4992220;28;1916;-40
2023/01/13 04:56:42;;;;;;;;;;;;;;;;;;4992798;28;1925;-41
2023/01/13 04:59:10;;;;;;;;;;;;;;;;;;4992747;28;2114;-40
2023/01/13 05:01:38;;;;;;;;;;;;;;;;;;4992993;28;2065;-40
2023/01/13 05:04:14;;;;;;;;;;;;;;;;;;4992859;28;2204;-41
2023/01/13 05:06:41;;;;;;;;;;;;;;;;;;4992572;28;1905;-41
2023/01/13 05:09:10;;;;;;;;;;;;;;;;;;4992353;28;1952;-41
2023/01/13 05:17:11;;;;;;;;;;;;;;;;;;4992500;28;1272;-41
2023/01/13 05:19:39;;;;;;;;;;;;;;;;;;4992554;28;1920;-42
2023/01/13 05:27:39;;;;;;;;;;;;;;;;;;4990936;28;1950;-41
2023/01/13 05:30:07;;;;;;;;;;;;;;;;;;4991239;28;1972;-41
2023/01/13 05:32:34;;;;;;;;;;;;;;;;;;4992051;28;1837;-40
2023/01/13 05:35:02;;;;;;;;;;;;;;;;;;4992140;28;2067;-42
2023/01/13 05:37:29;;;;;;;;;;;;;;;;;;4992198;28;1957;-41
2023/01/13 05:45:29;;;;;;;;;;;;;;;;;;4991616;28;1851;-42
2023/01/13 05:47:56;;;;;;;;;;;;;;;;;;4991915;28;1738;-42
2023/01/13 05:50:23;;;;;;;;;;;;;;;;;;4991738;28;1908;-40
2023/01/13 05:52:51;;;;;;;;;;;;;;;;;;4990571;28;2020;-42
2023/01/13 05:55:18;;;;;;;;;;;;;;;;;;4991666;28;1963;-43
2023/01/13 05:57:45;;;;;;;;;;;;;;;;;;4974660;28;1895;-42
2023/01/13 06:00:13;;;;;;;;;;;;;;;;;;4992181;28;1838;-44
2023/01/13 06:02:42;;;;;;;;;;;;;;;;;;4992151;28;2022;-41
2023/01/13 06:05:09;;;;;;;;;;;;;;;;;;4991663;28;1878;-42
2023/01/13 06:07:37;;;;;;;;;;;;;;;;;;4991573;28;1990;-42
2023/01/13 06:10:04;;;;;;;;;;;;;;;;;;4991329;28;2155;-43
2023/01/13 06:12:33;;;;;;;;;;;;;;;;;;4991691;28;1472;-42
2023/01/13 06:15:00;;;;;;;;;;;;;;;;;;4990410;28;1961;-42
2023/01/13 06:17:27;;;;;;;;;;;;;;;;;;4991659;28;2154;-43
2023/01/13 06:19:54;;;;;;;;;;;;;;;;;;4991531;28;1894;-42
2023/01/13 06:22:26;;;;;;;;;;;;;;;;;;4991625;28;1862;-43
2023/01/13 06:24:53;;;;;;;;;;;;;;;;;;4991563;28;1789;-42
2023/01/13 06:27:21;;;;;;;;;;;;;;;;;;4991462;28;2096;-42
2023/01/13 06:29:48;;;;;;;;;;;;;;;;;;4991081;28;1939;-43
2023/01/13 06:32:20;;;;;;;;;;;;;;;;;;4991369;28;2097;-43
2023/01/13 06:34:50;;;;;;;;;;;;;;;;;;4991302;28;1915;-42
2023/01/13 06:37:20;;;;;;;;;;;;;;;;;;4991787;28;1935;-43
2023/01/13 06:39:47;;;;;;;;;;;;;;;;;;4991415;28;2258;-43
2023/01/13 06:45:00;;;;;;;;;;;;;;;;;;4970588;28;2296;-43
2023/01/13 06:47:27;;;;;;;;;;;;;;;;;;4971647;28;2009;-42
2023/01/13 06:49:55;;;;;;;;;;;;;;;;;;4971758;28;2085;-45
2023/01/13 06:52:22;;;;;;;;;;;;;;;;;;4972141;28;2230;-43
2023/01/13 06:54:49;;;;;;;;;;;;;;;;;;4971909;28;2054;-43
2023/01/13 06:57:16;;;;;;;;;;;;;;;;;;4972272;28;1908;-43
2023/01/13 06:59:43;;;;;;;;;;;;;;;;;;4972019;28;1929;-44
2023/01/13 07:02:11;;;;;;;;;;;;;;;;;;4972280;28;2266;-43
2023/01/13 07:04:38;;;;;;;;;;;;;;;;;;4971720;28;1904;-43
2023/01/13 07:07:06;;;;;;;;;;;;;;;;;;4971572;28;2049;-44
2023/01/13 07:09:33;;;;;;;;;;;;;;;;;;4971841;28;1944;-44
2023/01/13 07:12:00;;;;;;;;;;;;;;;;;;4971777;28;2044;-43
2023/01/13 07:17:13;;;;;;;;;;;;;;;;;;4972220;28;1858;-43
2023/01/13 07:19:40;;;;;;;;;;;;;;;;;;4975139;28;2172;-43
2023/01/13 07:22:07;;;;;;;;;;;;;;;;;;4975179;28;1867;-43
2023/01/13 07:24:34;;;;;;;;;;;;;;;;;;4975278;28;2088;-44
2023/01/13 07:27:02;;;;;;;;;;;;;;;;;;4967754;28;2052;-44
2023/01/13 07:29:29;;;;;;;;;;;;;;;;;;4955821;28;2139;-42
2023/01/13 07:31:56;;;;;;;;;;;;;;;;;;4955481;28;1982;-45
2023/01/13 07:34:23;;;;;;;;;;;;;;;;;;4955790;28;2042;-43
2023/01/13 07:36:50;;;;;;;;;;;;;;;;;;4955738;28;1852;-42
2023/01/13 07:39:17;;;;;;;;;;;;;;;;;;4955787;29;1863;-43
2023/01/13 07:44:30;;;;;;;;;;;;;;;;;;4971677;28;2157;-43
2023/01/13 07:46:57;;;;;;;;;;;;;;;;;;4994009;28;2239;-45
2023/01/13 07:49:25;;;;;;;;;;;;;;;;;;4994327;28;2042;-43
2023/01/13 07:51:52;;;;;;;;;;;;;;;;;;4993754;28;1902;-42
2023/01/13 07:54:19;;;;;;;;;;;;;;;;;;4994196;28;2028;-44
2023/01/13 07:56:57;;;;;;;;;;;;;;;;;;4994053;28;2004;-43
2023/01/13 07:59:24;;;;;;;;;;;;;;;;;;4993774;28;2055;-44
2023/01/13 08:01:51;;;;;;;;;;;;;;;;;;4994029;28;2018;-42
2023/01/13 08:04:19;;;;;;;;;;;;;;;;;;4993509;28;2096;-43
2023/01/13 08:06:46;;;;;;;;;;;;;;;;;;4992456;28;1916;-43
2023/01/13 08:09:13;;;;;;;;;;;;;;;;;;4993822;28;1880;-44
2023/01/13 08:11:40;;;;;;;;;;;;;;;;;;4993147;28;2066;-43
2023/01/13 08:14:08;;;;;;;;;;;;;;;;;;4976490;28;1982;-43
2023/01/13 08:16:35;;;;;;;;;;;;;;;;;;4993518;28;2011;-45
2023/01/13 08:19:02;;;;;;;;;;;;;;;;;;4993599;28;2011;-44
2023/01/13 08:21:29;;;;;;;;;;;;;;;;;;4993638;28;2044;-43
2023/01/13 08:23:56;;;;;;;;;;;;;;;;;;4993456;28;2098;-43
2023/01/13 08:26:23;;;;;;;;;;;;;;;;;;4993602;28;2005;-43
2023/01/13 08:28:51;;;;;;;;;;;;;;;;;;4992480;28;2291;-45
2023/01/13 08:31:18;;;;;;;;;;;;;;;;;;4993138;28;1941;-43
2023/01/13 08:33:46;;;;;;;;;;;;;;;;;;4993113;28;1787;-46
2023/01/13 08:36:14;;;;;;;;;;;;;;;;;;4993100;28;2000;-43
2023/01/13 08:38:41;;;;;;;;;;;;;;;;;;4993492;28;2254;-44
2023/01/13 08:41:10;;;;;;;;;;;;;;;;;;4993186;28;2026;-44
2023/01/13 08:43:37;;;;;;;;;;;;;;;;;;4992807;28;2013;-43
2023/01/13 08:46:05;;;;;;;;;;;;;;;;;;4992971;28;1918;-43
2023/01/13 08:48:32;;;;;;;;;;;;;;;;;;4993054;28;1937;-45
2023/01/13 08:51:00;;;;;;;;;;;;;;;;;;4992864;28;2087;-45
2023/01/13 08:53:27;;;;;;;;;;;;;;;;;;4992685;28;1987;-45
2023/01/13 08:55:55;;;;;;;;;;;;;;;;;;4993085;28;1894;-44
2023/01/13 08:58:22;;;;;;;;;;;;;;;;;;4993127;28;2113;-43
2023/01/13 09:00:49;;;;;;;;;;;;;;;;;;4992698;28;2150;-44
2023/01/13 09:03:16;;;;;;;;;;;;;;;;;;4992652;28;2066;-44
2023/01/13 09:05:43;;;;;;;;;;;;;;;;;;4992438;28;2154;-45
2023/01/13 09:08:10;;;;;;;;;;;;;;;;;;4992696;28;1951;-44
2023/01/13 09:10:39;;;;;;;;;;;;;;;;;;4992306;28;2138;-43
2023/01/13 09:13:13;;;;;;;;;;;;;;;;;;4992350;28;1982;-45
2023/01/13 09:15:41;;;;;;;;;;;;;;;;;;4991369;28;1905;-43
2023/01/13 09:18:08;;;;;;;;;;;;;;;;;;4992324;28;2096;-43
2023/01/13 09:20:36;;;;;;;;;;;;;;;;;;4992333;28;1783;-44
2023/01/13 09:23:03;;;;;;;;;;;;;;;;;;4992270;28;1999;-44
2023/01/13 09:25:35;;;;;;;;;;;;;;;;;;4992316;28;1756;-42
2023/01/13 09:28:03;;;;;;;;;;;;;;;;;;4991971;28;1922;-43
2023/01/13 09:30:31;;;;;;;;;;;;;;;;;;4992111;28;2137;-43
2023/01/13 09:35:43;;;;;;;;;;;;;;;;;;4992292;28;1985;-46
2023/01/13 09:38:11;;;;;;;;;;;;;;;;;;4991788;28;2092;-43
2023/01/13 09:40:40;;;;;;;;;;;;;;;;;;4991898;28;1837;-43
2023/01/13 09:46:42;;;;;;;;;;;;;;;;;;4972493;28;1865;-43
2023/01/13 09:48:58;;;;;;;;;;;;;;;;;;4972576;28;2074;-46
2023/01/13 09:51:30;;;;;;;;;;;;;;;;;;4972444;28;2046;-45
2023/01/13 09:54:27;;;;;;;;;;;;;;;;;;4987197;28;1980;-46
2023/01/13 09:56:54;;;;;;;;;;;;;;;;;;4972510;28;1951;-44
2023/01/13 09:59:24;;;;;;;;;;;;;;;;;;4972583;28;2087;-43
2023/01/13 10:01:59;;;;;;;;;;;;;;;;;;4972327;28;1909;-44
2023/01/13 10:04:27;;;;;;;;;;;;;;;;;;4972509;28;1901;-43
2023/01/13 10:06:57;;;;;;;;;;;;;;;;;;4972457;28;2102;-44
2023/01/13 10:09:44;;;;;;;;;;;;;;;;;;4972324;28;2147;-43
2023/01/13 10:15:01;;;;;;;;;;;;;;;;;;4972470;28;2044;-46
2023/01/13 10:17:28;;;;;;;;;;;;;;;;;;4972659;28;1883;-45
2023/01/13 10:19:59;;;;;;;;;;;;;;;;;;4972178;28;2201;-43
2023/01/13 10:22:37;;;;;;;;;;;;;;;;;;4972031;28;1919;-47
2023/01/13 10:25:26;;;;;;;;;;;;;;;;;;4972197;28;1895;-45
2023/01/13 10:27:54;;;;;;;;;;;;;;;;;;4972215;28;1933;-43
2023/01/13 10:30:26;;;;;;;;;;;;;;;;;;4972064;28;2082;-43
2023/01/13 10:33:28;;;;;;;;;;;;;;;;;;4972060;28;1981;-44
2023/01/13 10:35:56;;;;;;;;;;;;;;;;;;4931608;29;1914;-43
2023/01/13 10:38:25;;;;;;;;;;;;;;;;;;4964411;28;2103;-44
2023/01/13 10:40:53;;;;;;;;;;;;;;;;;;4972039;28;1889;-44
2023/01/13 10:43:21;;;;;;;;;;;;;;;;;;4971965;28;1672;-43
2023/01/13 10:45:57;;;;;;;;;;;;;;;;;;4990466;28;1834;-44
2023/01/13 10:48:36;;;;;;;;;;;;;;;;;;4991374;28;2052;-43
2023/01/13 10:51:16;;;;;;;;;;;;;;;;;;4991329;28;1977;-42
2023/01/13 10:53:45;;;;;;;;;;;;;;;;;;4994210;28;1807;-43
2023/01/13 10:56:16;;;;;;;;;;;;;;;;;;4995041;28;2268;-43
2023/01/13 10:58:43;;;;;;;;;;;;;;;;;;4995188;28;2037;-43
2023/01/13 11:01:36;;;;;;;;;;;;;;;;;;4994979;28;2090;-43
2023/01/13 11:04:15;;;;;;;;;;;;;;;;;;4992587;28;1958;-42
2023/01/13 11:06:48;;;;;;;;;;;;;;;;;;4994950;28;2062;-43
2023/01/13 11:09:18;;;;;;;;;;;;;;;;;;4994921;28;2123;-44
2023/01/13 11:11:48;;;;;;;;;;;;;;;;;;4994671;28;2107;-43
2023/01/13 11:14:35;;;;;;;;;;;;;;;;;;4994748;28;2234;-44
2023/01/13 11:17:12;;;;;;;;;;;;;;;;;;4994801;28;1871;-43
2023/01/13 11:19:42;;;;;;;;;;;;;;;;;;4994474;28;2221;-43
2023/01/13 11:22:16;;;;;;;;;;;;;;;;;;4994557;28;1829;-44
2023/01/13 11:24:54;;;;;;;;;;;;;;;;;;4994450;28;2160;-43
2023/01/13 11:27:21;;;;;;;;;;;;;;;;;;4994538;28;1999;-50
2023/01/13 11:30:08;;;;;;;;;;;;;;;;;;4994686;28;2043;-42
2023/01/13 11:32:43;;;;;;;;;;;;;;;;;;4994390;28;1930;-44
2023/01/13 11:35:15;;;;;;;;;;;;;;;;;;4994356;28;2082;-43
2023/01/13 11:37:45;;;;;;;;;;;;;;;;;;4994319;28;1779;-43
2023/01/13 11:40:16;;;;;;;;;;;;;;;;;;4994347;28;1941;-43
2023/01/13 11:43:16;;;;;;;;;;;;;;;;;;4994025;28;2166;-43
2023/01/13 11:45:54;;;;;;;;;;;;;;;;;;4962119;28;1441;-43
2023/01/13 11:48:27;;;;;;;;;;;;;;;;;;4994146;28;2029;-44
2023/01/13 11:51:12;;;;;;;;;;;;;;;;;;4994220;28;2096;-43
2023/01/13 11:53:40;;;;;;;;;;;;;;;;;;4994048;28;1850;-45
2023/01/13 11:56:26;;;;;;;;;;;;;;;;;;4994285;28;1766;-44
2023/01/13 11:59:19;;;;;;;;;;;;;;;;;;4994009;28;2057;-45
2023/01/13 12:01:47;;;;;;;;;;;;;;;;;;4978356;28;1932;-44
2023/01/13 12:04:16;;;;;;;;;;;;;;;;;;4993448;28;1911;-45
2023/01/13 12:06:45;;;;;;;;;;;;;;;;;;4993923;28;2237;-43
2023/01/13 12:09:20;;;;;;;;;;;;;;;;;;4993932;28;1973;-43
2023/01/13 12:15:01;;;;;;;;;;;;;;;;;;4993386;28;2104;-43
2023/01/13 12:17:28;;;;;;;;;;;;;;;;;;4993680;28;1899;-43
2023/01/13 12:19:56;;;;;;;;;;;;;;;;;;4993428;28;1844;-44
2023/01/13 12:22:27;;;;;;;;;;;;;;;;;;4993431;28;1876;-45
2023/01/13 12:24:57;;;;;;;;;;;;;;;;;;4993151;28;1939;-43
2023/01/13 12:27:39;;;;;;;;;;;;;;;;;;4993495;28;1949;-43
2023/01/13 12:30:18;;;;;;;;;;;;;;;;;;4993723;28;2040;-44
2023/01/13 12:32:46;;;;;;;;;;;;;;;;;;4993285;28;2065;-43
2023/01/13 12:35:36;;;;;;;;;;;;;;;;;;4993089;28;2067;-44
2023/01/13 12:38:18;;;;;;;;;;;;;;;;;;4993343;28;1833;-45
2023/01/13 12:41:00;;;;;;;;;;;;;;;;;;4993055;28;2140;-44
2023/01/13 12:46:17;;;;;;;;;;;;;;;;;;5000792;28;1861;-43
2023/01/13 12:48:45;;;;;;;;;;;;;;;;;;5011380;28;2229;-44
2023/01/13 12:51:22;;;;;;;;;;;;;;;;;;5012786;28;1895;-44
2023/01/13 12:53:50;;;;;;;;;;;;;;;;;;5012248;28;2084;-43
2023/01/13 12:56:21;;;;;;;;;;;;;;;;;;5012383;28;1980;-45
2023/01/13 12:58:48;;;;;;;;;;;;;;;;;;5012345;28;1996;-45
2023/01/13 13:01:15;;;;;;;;;;;;;;;;;;5012522;28;2026;-44
2023/01/13 13:04:04;;;;;;;;;;;;;;;;;;5012082;28;2179;-44
2023/01/13 13:06:31;;;;;;;;;;;;;;;;;;4982257;28;1341;-43
2023/01/13 13:09:02;;;;;;;;;;;;;;;;;;5012285;28;2098;-43
2023/01/13 13:14:35;;;;;;;;;;;;;;;;;;5012073;28;1929;-43
2023/01/13 13:17:18;;;;;;;;;;;;;;;;;;5011504;28;2002;-43
2023/01/13 13:19:47;;;;;;;;;;;;;;;;;;5011657;28;2042;-43
2023/01/13 13:22:35;;;;;;;;;;;;;;;;;;5010696;28;2024;-43
2023/01/13 13:25:02;;;;;;;;;;;;;;;;;;4992359;28;1974;-43
2023/01/13 13:27:40;;;;;;;;;;;;;;;;;;4991766;28;2023;-42
2023/01/13 13:30:13;;;;;;;;;;;;;;;;;;4992105;28;1903;-43
2023/01/13 13:32:59;;;;;;;;;;;;;;;;;;4992320;28;1981;-44
2023/01/13 13:35:45;;;;;;;;;;;;;;;;;;4992095;28;1933;-42
2023/01/13 13:47:00;;;;;;;;;;;;;;;;;;4991768;28;1753;-43
2023/01/13 13:49:36;;;;;;;;;;;;;;;;;;4991924;28;2062;-44
2023/01/13 13:52:13;;;;;;;;;;;;;;;;;;4991917;28;1981;-45
2023/01/13 13:54:42;;;;;;;;;;;;;;;;;;4991980;28;2049;-43
2023/01/13 13:57:15;;;;;;;;;;;;;;;;;;4991877;28;2009;-44
2023/01/13 13:59:42;;;;;;;;;;;;;;;;;;4991936;28;1999;-45
2023/01/13 14:02:16;;;;;;;;;;;;;;;;;;4991665;28;1943;-45
2023/01/13 14:04:43;;;;;;;;;;;;;;;;;;4991810;28;1887;-42
2023/01/13 14:07:19;;;;;;;;;;;;;;;;;;4991482;28;2004;-42
2023/01/13 14:09:48;;;;;;;;;;;;;;;;;;4991643;28;1981;-43
2023/01/13 14:12:17;;;;;;;;;;;;;;;;;;4991625;28;2017;-45
2023/01/13 14:14:45;;;;;;;;;;;;;;;;;;4991869;28;1821;-46
2023/01/13 14:17:24;;;;;;;;;;;;;;;;;;4991705;28;1904;-45
2023/01/13 14:19:57;;;;;;;;;;;;;;;;;;4991768;28;1983;-43
2023/01/13 14:22:27;;;;;;;;;;;;;;;;;;4991500;28;2006;-43
2023/01/13 14:24:56;;;;;;;;;;;;;;;;;;4991593;28;2112;-45
2023/01/13 14:27:26;;;;;;;;;;;;;;;;;;4993670;28;2381;-46
2023/01/13 14:29:54;;;;;;;;;;;;;;;;;;4995399;28;2042;-44
2023/01/13 14:32:23;;;;;;;;;;;;;;;;;;4995179;28;2194;-43
2023/01/13 14:34:53;;;;;;;;;;;;;;;;;;4995400;28;1961;-43
2023/01/13 14:37:53;;;;;;;;;;;;;;;;;;4995453;28;1859;-45
2023/01/13 14:40:32;;;;;;;;;;;;;;;;;;4987737;28;2016;-45
2023/01/13 14:43:00;;;;;;;;;;;;;;;;;;4995284;28;2130;-44
2023/01/13 14:45:27;;;;;;;;;;;;;;;;;;4995264;28;1881;-44
2023/01/13 14:47:54;;;;;;;;;;;;;;;;;;4995160;28;2060;-45
2023/01/13 14:50:30;;;;;;;;;;;;;;;;;;4995220;28;1884;-44
2023/01/13 14:52:59;;;;;;;;;;;;;;;;;;4994752;28;1981;-42
2023/01/13 14:55:30;;;;;;;;;;;;;;;;;;4995246;28;2017;-45
2023/01/13 14:58:16;;;;;;;;;;;;;;;;;;4994925;28;1432;-44
2023/01/13 15:00:43;;;;;;;;;;;;;;;;;;4995095;28;1852;-44
2023/01/13 15:03:13;;;;;;;;;;;;;;;;;;4994925;28;1816;-46
2023/01/13 15:05:46;;;;;;;;;;;;;;;;;;4994818;28;1983;-44
2023/01/13 15:08:13;;;;;;;;;;;;;;;;;;4994831;28;1786;-44
2023/01/13 15:10:43;;;;;;;;;;;;;;;;;;4994800;28;1941;-44
2023/01/13 15:13:21;;;;;;;;;;;;;;;;;;4994531;28;1962;-45
2023/01/13 15:15:49;;;;;;;;;;;;;;;;;;4977527;28;1917;-44
2023/01/13 15:18:17;;;;;;;;;;;;;;;;;;4994907;28;1977;-42
2023/01/13 15:20:44;;;;;;;;;;;;;;;;;;4994469;28;1726;-44
2023/01/13 15:23:12;;;;;;;;;;;;;;;;;;4994493;28;2125;-42
2023/01/13 15:25:40;;;;;;;;;;;;;;;;;;4994525;28;2063;-43
2023/01/13 15:28:21;;;;;;;;;;;;;;;;;;4994090;28;1988;-44
2023/01/13 15:30:50;;;;;;;;;;;;;;;;;;4994916;28;1891;-43
2023/01/13 15:33:17;;;;;;;;;;;;;;;;;;4994641;28;1977;-45
2023/01/13 15:35:45;;;;;;;;;;;;;;;;;;4994411;28;2176;-45
2023/01/13 15:38:14;;;;;;;;;;;;;;;;;;4993568;28;1308;-45
2023/01/13 15:40:42;;;;;;;;;;;;;;;;;;4994158;28;2166;-44
2023/01/13 15:48:45;;;;;;;;;;;;;;;;;;4994154;28;1854;-44
2023/01/13 15:51:13;;;;;;;;;;;;;;;;;;4993919;28;1881;-43
2023/01/13 15:53:40;;;;;;;;;;;;;;;;;;4994112;28;1976;-43
2023/01/13 15:56:12;;;;;;;;;;;;;;;;;;4992648;28;1946;-44
2023/01/13 15:58:39;;;;;;;;;;;;;;;;;;4993862;28;1941;-44
2023/01/13 16:01:07;;;;;;;;;;;;;;;;;;4993672;28;1869;-44
2023/01/13 16:03:35;;;;;;;;;;;;;;;;;;4993517;28;2045;-47
2023/01/13 16:06:02;;;;;;;;;;;;;;;;;;4992638;28;2103;-44
2023/01/13 16:08:29;;;;;;;;;;;;;;;;;;4993675;28;2085;-44
2023/01/13 16:10:56;;;;;;;;;;;;;;;;;;4991702;28;1856;-42
2023/01/13 16:13:24;;;;;;;;;;;;;;;;;;4993408;28;2038;-43
2023/01/13 16:15:51;;;;;;;;;;;;;;;;;;4993786;28;2028;-45
2023/01/13 16:18:23;;;;;;;;;;;;;;;;;;4993433;28;1878;-43
2023/01/13 16:20:54;;;;;;;;;;;;;;;;;;4993847;28;1959;-47
2023/01/13 16:23:21;;;;;;;;;;;;;;;;;;4993606;28;2044;-39
2023/01/13 16:25:50;;;;;;;;;;;;;;;;;;4993388;28;1995;-45
2023/01/13 16:28:21;;;;;;;;;;;;;;;;;;4993298;28;2150;-43
2023/01/13 16:30:49;;;;;;;;;;;;;;;;;;4993210;28;1939;-42
2023/01/13 16:33:16;;;;;;;;;;;;;;;;;;4993216;28;1990;-42
2023/01/13 16:35:43;;;;;;;;;;;;;;;;;;4992061;28;2004;-43
2023/01/13 16:38:30;;;;;;;;;;;;;;;;;;5011221;28;2004;-44
2023/01/13 16:40:57;;;;;;;;;;;;;;;;;;5008461;28;1768;-44
2023/01/13 16:43:25;;;;;;;;;;;;;;;;;;4992712;28;1922;-40
2023/01/13 16:45:52;;;;;;;;;;;;;;;;;;4992591;28;2412;-45
2023/01/13 16:48:21;;;;;;;;;;;;;;;;;;4993162;28;2000;-41
2023/01/13 16:50:48;;;;;;;;;;;;;;;;;;4992058;28;2143;-44
2023/01/13 16:53:16;;;;;;;;;;;;;;;;;;4992364;28;1956;-47
2023/01/13 16:55:43;;;;;;;;;;;;;;;;;;4992494;28;2085;-46
2023/01/13 16:58:17;;;;;;;;;;;;;;;;;;4992584;28;1989;-45
2023/01/13 17:00:47;;;;;;;;;;;;;;;;;;4992310;28;1919;-42
2023/01/13 17:03:15;;;;;;;;;;;;;;;;;;4992799;28;1995;-43
2023/01/13 17:05:43;;;;;;;;;;;;;;;;;;4992551;28;2061;-43
2023/01/13 17:08:14;;;;;;;;;;;;;;;;;;4991980;28;2132;-47
2023/01/13 17:10:43;;;;;;;;;;;;;;;;;;4992636;28;1887;-42
2023/01/13 17:13:13;;;;;;;;;;;;;;;;;;4926506;28;9873;-44
2023/01/13 17:15:43;;;;;;;;;;;;;;;;;;4991384;28;2092;-43
2023/01/13 17:18:12;;;;;;;;;;;;;;;;;;4991344;28;2050;-44
2023/01/13 17:20:39;;;;;;;;;;;;;;;;;;4992115;28;1966;-41
2023/01/13 17:33:36;;;;;;;;;;;;;;;;;;5129098;27;1426;-43
2023/01/13 17:36:03;;;;;;;;;;;;;;;;;;5129071;28;951;-44
2023/01/13 17:38:30;;;;;;;;;;;;;;;;;;5107820;28;975;-43
2023/01/13 17:41:03;;;;;;;;;;;;;;;;;;5108552;28;1910;-45
2023/01/13 17:43:31;;;;;;;;;;;;;;;;;;5108342;28;901;-43
2023/01/13 17:45:58;;;;;;;;;;;;;;;;;;5107272;28;1006;-42
2023/01/13 17:48:25;;;;;;;;;;;;;;;;;;5106560;28;1172;-43
2023/01/13 17:50:53;;;;;;;;;;;;;;;;;;5106080;28;975;-43
2023/01/13 17:53:20;;;;;;;;;;;;;;;;;;5105831;28;1054;-44
2023/01/13 17:55:51;;;;;;;;;;;;;;;;;;5105800;28;994;-44
2023/01/13 17:58:19;;;;;;;;;;;;;;;;;;5105946;28;1249;-44
2023/01/13 18:00:49;;;;;;;;;;;;;;;;;;5105583;28;948;-42
2023/01/13 18:03:17;;;;;;;;;;;;;;;;;;5089161;28;1882;-47
2023/01/13 18:05:45;;;;;;;;;;;;;;;;;;5107877;28;1221;-44
2023/01/13 18:08:12;;;;;;;;;;;;;;;;;;5107461;28;955;-47
2023/01/13 18:10:40;;;;;;;;;;;;;;;;;;5107632;28;912;-44
2023/01/13 18:13:08;;;;;;;;;;;;;;;;;;5107433;28;983;-43
2023/01/13 18:15:35;;;;;;;;;;;;;;;;;;5107200;28;1353;-44
2023/01/13 18:18:03;;;;;;;;;;;;;;;;;;5107755;28;1075;-42
2023/01/13 18:29:22;;;;;;;;;;;;;;;;;;5103807;28;1227;-42
2023/01/13 18:31:51;;;;;;;;;;;;;;;;;;5106860;28;1196;-42
2023/01/13 18:34:19;;;;;;;;;;;;;;;;;;5095464;28;1141;-44
2023/01/13 18:36:46;;;;;;;;;;;;;;;;;;5093178;28;1006;-41
2023/01/13 18:39:14;;;;;;;;;;;;;;;;;;5093581;28;1076;-39
2023/01/13 18:44:35;;;;;;;;;;;;;;;;;;5093306;28;1003;-41
2023/01/13 18:47:06;;;;;;;;;;;;;;;;;;5093108;28;1192;-40
2023/01/13 18:49:33;;;;;;;;;;;;;;;;;;5093762;28;1082;-43
2023/01/13 18:52:01;;;;;;;;;;;;;;;;;;5093044;28;977;-39
2023/01/13 18:54:30;;;;;;;;;;;;;;;;;;5093345;28;971;-39
2023/01/13 18:57:01;;;;;;;;;;;;;;;;;;5093731;28;1091;-44